Time;durP1;ratioP1;P1;durP2;ratioP2;P2;SDS_P1;SDS_P2;PMS_P1;PMS_P2;Temp;Humidity;BMP_temperature;BMP_pressure;BME280_temperature;BME280_humidity;BME280_pressure;Samples;Min_cycle;Max_cycle;Signal;HPM_P1;HPM_P2
2023/05/25 00:00:50;;;;;;;;;;;;;;;10.58;100.00;95911.41;10480413;28;1890;-69
2023/05/25 00:06:04;;;;;;;;;;;;;;;10.50;100.00;95917.34;10485018;28;1973;-69
2023/05/25 00:11:07;;;;;;;;;;;;;;;10.47;100.00;95918.66;10478308;28;2142;-70
2023/05/25 00:16:09;;;;;;;;;;;;;;;10.58;100.00;95916.78;10481912;28;1989;-69
2023/05/25 00:21:12;;;;;;;;;;;;;;;10.61;100.00;95924.28;10483167;28;1969;-69
2023/05/25 00:26:16;;;;;;;;;;;;;;;10.57;100.00;95925.94;10476991;28;2217;-69
2023/05/25 00:31:18;;;;;;;;;;;;;;;10.51;100.00;95924.31;10477966;28;1990;-69
2023/05/25 00:36:22;;;;;;;;;;;;;;;10.51;100.00;95918.94;10481699;28;1990;-71
2023/05/25 00:41:26;;;;;;;;;;;;;;;10.44;100.00;95921.09;10481118;28;4598;-69
2023/05/25 00:46:28;;;;;;;;;;;;;;;10.42;100.00;95904.41;10482570;28;1986;-68
2023/05/25 00:51:32;;;;;;;;;;;;;;;10.36;100.00;95900.13;10477083;28;2003;-70
2023/05/25 00:56:35;;;;;;;;;;;;;;;10.40;100.00;95902.00;10487402;28;1940;-69
2023/05/25 01:01:38;;;;;;;;;;;;;;;10.28;100.00;95890.72;10486447;28;1944;-70
2023/05/25 01:06:42;;;;;;;;;;;;;;;10.28;100.00;95901.47;10505981;28;2006;-69
2023/05/25 01:11:44;;;;;;;;;;;;;;;10.18;100.00;95907.63;10474844;28;2198;-69
2023/05/25 01:16:46;;;;;;;;;;;;;;;10.25;100.00;95910.06;10479266;28;1921;-77
2023/05/25 01:21:49;;;;;;;;;;;;;;;10.21;100.00;95901.69;10480650;28;2183;-71
2023/05/25 01:26:54;;;;;;;;;;;;;;;10.22;100.00;95911.38;10479229;28;2012;-68
2023/05/25 01:31:56;;;;;;;;;;;;;;;10.22;100.00;95903.31;10482348;28;1976;-68
2023/05/25 01:36:59;;;;;;;;;;;;;;;10.26;100.00;95901.75;10479928;28;1908;-69
2023/05/25 01:42:02;;;;;;;;;;;;;;;10.25;100.00;95902.81;10501486;28;4691;-69
2023/05/25 01:47:05;;;;;;;;;;;;;;;10.32;100.00;95907.13;10482738;28;1999;-69
2023/05/25 01:52:08;;;;;;;;;;;;;;;10.23;100.00;95909.50;10478427;28;2135;-68
2023/05/25 01:57:11;;;;;;;;;;;;;;;10.29;100.00;95917.31;10473976;28;1971;-69
2023/05/25 02:02:13;;;;;;;;;;;;;;;10.28;100.00;95926.44;10476551;28;2269;-69
2023/05/25 02:07:17;;;;;;;;;;;;;;;10.40;100.00;95918.13;10480927;28;1973;-70
2023/05/25 02:12:19;;;;;;;;;;;;;;;10.37;100.00;95918.69;10475887;28;1924;-69
2023/05/25 02:17:21;;;;;;;;;;;;;;;10.30;100.00;95912.75;10477914;28;1999;-70
2023/05/25 02:22:24;;;;;;;;;;;;;;;10.20;100.00;95905.47;10477816;28;2254;-70
2023/05/25 02:27:27;;;;;;;;;;;;;;;10.28;100.00;95913.00;10479752;28;2077;-70
2023/05/25 02:32:30;;;;;;;;;;;;;;;10.52;100.00;95913.28;10468853;28;1900;-70
2023/05/25 02:37:32;;;;;;;;;;;;;;;10.62;100.00;95914.34;10478059;28;2131;-70
2023/05/25 02:42:35;;;;;;;;;;;;;;;10.62;100.00;95907.09;10480064;28;4659;-69
2023/05/25 02:47:37;;;;;;;;;;;;;;;10.68;100.00;95926.72;10475259;28;1987;-70
2023/05/25 02:52:39;;;;;;;;;;;;;;;10.68;100.00;95921.34;10480691;28;1975;-71
2023/05/25 02:57:42;;;;;;;;;;;;;;;10.74;100.00;95915.69;10476547;28;1964;-71
2023/05/25 03:02:45;;;;;;;;;;;;;;;10.71;100.00;95915.44;10472874;28;2206;-70
2023/05/25 03:07:48;;;;;;;;;;;;;;;10.82;100.00;95919.72;10473625;28;2029;-76
2023/05/25 03:12:50;;;;;;;;;;;;;;;10.80;100.00;95914.59;10480315;28;2273;-70
2023/05/25 03:17:55;;;;;;;;;;;;;;;10.89;100.00;95925.63;10473739;28;1928;-70
2023/05/25 03:22:58;;;;;;;;;;;;;;;10.93;100.00;95926.69;10472465;28;2063;-69
2023/05/25 03:28:00;;;;;;;;;;;;;;;10.96;100.00;95930.72;10479799;28;1961;-69
2023/05/25 03:33:03;;;;;;;;;;;;;;;11.09;100.00;95932.84;10475841;28;1992;-69
2023/05/25 03:38:05;;;;;;;;;;;;;;;11.07;100.00;95918.88;10471582;28;2026;-70
2023/05/25 03:43:07;;;;;;;;;;;;;;;11.12;100.00;95920.72;10477970;28;4574;-72
2023/05/25 03:48:10;;;;;;;;;;;;;;;11.21;100.00;95933.38;10479316;28;2146;-74
2023/05/25 03:53:12;;;;;;;;;;;;;;;11.22;100.00;95936.84;10473944;28;1975;-71
2023/05/25 03:58:17;;;;;;;;;;;;;;;11.23;100.00;95931.19;10477815;28;1983;-70
2023/05/25 04:03:20;;;;;;;;;;;;;;;11.33;100.00;95933.06;10474008;28;1948;-70
2023/05/25 04:08:23;;;;;;;;;;;;;;;11.26;100.00;95938.72;10465695;28;2307;-73
2023/05/25 04:13:26;;;;;;;;;;;;;;;11.30;100.00;95942.47;10475601;28;1976;-72
2023/05/25 04:18:28;;;;;;;;;;;;;;;11.33;100.00;95943.81;10479655;28;1999;-68
2023/05/25 04:23:32;;;;;;;;;;;;;;;11.29;100.00;95954.31;10474680;28;1967;-70
2023/05/25 04:28:35;;;;;;;;;;;;;;;11.18;100.00;95960.78;10476117;28;2003;-71
2023/05/25 04:33:39;;;;;;;;;;;;;;;11.17;100.00;95959.19;10483195;28;1982;-70
2023/05/25 04:38:46;;;;;;;;;;;;;;;11.34;100.00;95950.81;10484337;28;2012;-70
2023/05/25 04:43:49;;;;;;;;;;;;;;;11.42;100.00;95949.44;10482835;28;1979;-68
2023/05/25 04:49:09;;;;;;;;;;;;;;;11.55;100.00;95955.03;10475937;28;1965;-69
2023/05/25 04:54:11;;;;;;;;;;;;;;;11.57;100.00;95949.38;10480954;28;1996;-70
2023/05/25 04:59:14;;;;;;;;;;;;;;;11.59;100.00;95963.38;10481114;28;1901;-71
2023/05/25 05:04:17;;;;;;;;;;;;;;;11.56;100.00;95956.66;10481471;28;2159;-70
2023/05/25 05:09:19;;;;;;;;;;;;;;;11.74;100.00;95968.69;10478841;28;2017;-70
2023/05/25 05:14:21;;;;;;;;;;;;;;;11.68;100.00;95975.19;10484536;28;1963;-71
2023/05/25 05:19:24;;;;;;;;;;;;;;;11.72;100.00;95989.72;10481328;28;2012;-70
2023/05/25 05:24:27;;;;;;;;;;;;;;;11.67;100.00;95978.16;10476614;28;2308;-71
2023/05/25 05:29:29;;;;;;;;;;;;;;;11.78;100.00;95980.53;10473695;28;1956;-69
2023/05/25 05:34:31;;;;;;;;;;;;;;;11.71;100.00;95981.94;10472747;28;2229;-69
2023/05/25 05:39:34;;;;;;;;;;;;;;;11.76;100.00;95981.88;10477292;28;2008;-69
2023/05/25 05:44:36;;;;;;;;;;;;;;;11.87;100.00;95994.25;10477865;28;4606;-70
2023/05/25 05:49:39;;;;;;;;;;;;;;;11.79;100.00;95989.44;10478755;28;2075;-69
2023/05/25 05:54:41;;;;;;;;;;;;;;;11.94;100.00;95996.66;10474610;28;1958;-71
2023/05/25 05:59:43;;;;;;;;;;;;;;;11.93;100.00;95995.84;10479465;28;2253;-72
2023/05/25 06:04:46;;;;;;;;;;;;;;;12.17;100.00;95987.94;10480880;28;1964;-70
2023/05/25 06:09:48;;;;;;;;;;;;;;;12.25;100.00;95994.63;10475268;28;2182;-70
2023/05/25 06:14:50;;;;;;;;;;;;;;;12.33;100.00;95996.72;10478859;28;1952;-71
2023/05/25 06:19:53;;;;;;;;;;;;;;;12.58;100.00;95993.06;10480354;28;1914;-74
2023/05/25 06:24:55;;;;;;;;;;;;;;;12.53;100.00;95996.56;10477815;28;2253;-70
2023/05/25 06:29:58;;;;;;;;;;;;;;;12.57;100.00;96004.94;10479323;28;1913;-70
2023/05/25 06:35:01;;;;;;;;;;;;;;;12.67;100.00;96004.88;10478117;28;1991;-71
2023/05/25 06:40:04;;;;;;;;;;;;;;;12.73;100.00;96009.13;10474109;28;1853;-70
2023/05/25 06:45:06;;;;;;;;;;;;;;;12.81;100.00;96013.94;10470284;28;4453;-68
2023/05/25 06:50:08;;;;;;;;;;;;;;;12.81;100.00;96010.44;10477903;28;2049;-71
2023/05/25 06:55:11;;;;;;;;;;;;;;;12.58;100.00;96017.31;10472157;28;2007;-69
2023/05/25 07:00:13;;;;;;;;;;;;;;;12.84;100.00;96016.03;10471879;28;2028;-70
2023/05/25 07:05:15;;;;;;;;;;;;;;;13.19;100.00;96022.25;10468211;28;2038;-70
2023/05/25 07:10:18;;;;;;;;;;;;;;;12.90;100.00;96022.22;10473857;28;1963;-70
2023/05/25 07:15:21;;;;;;;;;;;;;;;13.03;100.00;96024.25;10467338;28;1972;-70
2023/05/25 07:20:24;;;;;;;;;;;;;;;13.07;100.00;96032.59;10472805;28;1996;-70
2023/05/25 07:25:26;;;;;;;;;;;;;;;12.97;100.00;96026.19;10467172;28;1979;-70
2023/05/25 07:30:28;;;;;;;;;;;;;;;12.99;100.00;96024.03;10472158;28;1976;-71
2023/05/25 07:35:33;;;;;;;;;;;;;;;13.51;100.00;96038.72;10476381;28;2232;-70
2023/05/25 07:40:35;;;;;;;;;;;;;;;13.48;100.00;96031.16;10467413;28;4570;-69
2023/05/25 07:45:37;;;;;;;;;;;;;;;13.22;100.00;96037.91;10477748;28;1948;-71
2023/05/25 07:50:40;;;;;;;;;;;;;;;13.80;100.00;96048.66;10474436;28;2044;-69
2023/05/25 07:55:42;;;;;;;;;;;;;;;14.07;100.00;96048.91;10477080;28;2207;-70
2023/05/25 08:00:45;;;;;;;;;;;;;;;14.25;100.00;96054.63;10475762;28;2142;-70
2023/05/25 08:05:47;;;;;;;;;;;;;;;13.92;100.00;96048.25;10480951;28;2386;-72
2023/05/25 08:10:50;;;;;;;;;;;;;;;14.02;100.00;96059.78;10479278;28;1972;-70
2023/05/25 08:15:52;;;;;;;;;;;;;;;14.12;100.00;96069.66;10478868;28;1983;-70
2023/05/25 08:20:55;;;;;;;;;;;;;;;14.25;100.00;96065.44;10482370;28;2079;-69
2023/05/25 08:25:57;;;;;;;;;;;;;;;14.25;100.00;96070.84;10484418;28;1964;-71
2023/05/25 08:31:00;;;;;;;;;;;;;;;13.96;100.00;96073.63;10486812;28;1981;-69
2023/05/25 08:36:02;;;;;;;;;;;;;;;14.47;100.00;96070.34;10485817;28;1843;-68
2023/05/25 08:41:05;;;;;;;;;;;;;;;14.51;100.00;96071.38;10484529;28;4748;-69
2023/05/25 08:46:07;;;;;;;;;;;;;;;14.71;100.00;96064.88;10478933;28;1999;-71
2023/05/25 08:51:10;;;;;;;;;;;;;;;15.31;100.00;96071.25;10487886;28;2215;-75
2023/05/25 08:56:13;;;;;;;;;;;;;;;14.62;100.00;96085.56;10480808;28;1997;-68
2023/05/25 09:01:15;;;;;;;;;;;;;;;14.70;100.00;96084.91;10485343;28;1999;-70
2023/05/25 09:06:18;;;;;;;;;;;;;;;14.56;100.00;96088.31;10475689;28;1972;-70
2023/05/25 09:11:20;;;;;;;;;;;;;;;15.30;100.00;96087.78;10478447;28;1983;-71
2023/05/25 09:16:39;;;;;;;;;;;;;;;15.55;100.00;96087.38;10480551;28;1928;-70
2023/05/25 09:21:42;;;;;;;;;;;;;;;15.44;100.00;96091.34;10481329;28;1925;-70
2023/05/25 09:26:47;;;;;;;;;;;;;;;15.40;100.00;96096.56;10479848;28;2095;-70
2023/05/25 09:31:50;;;;;;;;;;;;;;;15.57;100.00;96101.41;10484263;28;1904;-69
2023/05/25 09:36:52;;;;;;;;;;;;;;;15.38;100.00;96109.59;10478161;28;2257;-69
2023/05/25 09:41:55;;;;;;;;;;;;;;;16.13;100.00;96115.91;10473640;28;4601;-70
2023/05/25 09:46:57;;;;;;;;;;;;;;;16.13;100.00;96113.19;10479785;28;2060;-71
2023/05/25 09:52:00;;;;;;;;;;;;;;;16.51;100.00;96113.00;10478545;28;1988;-70
2023/05/25 09:57:02;;;;;;;;;;;;;;;16.26;100.00;96112.38;10475413;28;1822;-68
2023/05/25 10:02:04;;;;;;;;;;;;;;;16.06;100.00;96102.75;10481788;28;1901;-68
2023/05/25 10:07:07;;;;;;;;;;;;;;;15.75;100.00;96124.19;10475679;28;1802;-68
2023/05/25 10:12:09;;;;;;;;;;;;;;;16.38;100.00;96115.41;10475380;28;1914;-69
2023/05/25 10:17:12;;;;;;;;;;;;;;;16.70;100.00;96121.84;10474486;28;1909;-69
2023/05/25 10:22:14;;;;;;;;;;;;;;;16.19;100.00;96123.63;10476899;28;1740;-69
2023/05/25 10:27:17;;;;;;;;;;;;;;;16.73;100.00;96113.91;10480271;28;1842;-69
2023/05/25 10:32:29;;;;;;;;;;;;;;;17.75;100.00;96108.84;10480918;28;1977;-70
2023/05/25 10:37:31;;;;;;;;;;;;;;;16.68;100.00;96122.13;10479329;28;1917;-71
2023/05/25 10:42:35;;;;;;;;;;;;;;;16.75;100.00;96114.41;10477569;28;4579;-69
2023/05/25 10:47:40;;;;;;;;;;;;;;;17.33;100.00;96112.03;10481593;28;1960;-70
2023/05/25 10:52:43;;;;;;;;;;;;;;;16.73;100.00;96126.66;10475616;28;1914;-69
2023/05/25 10:57:45;;;;;;;;;;;;;;;17.19;100.00;96117.50;10480432;28;1495;-71
2023/05/25 11:02:48;;;;;;;;;;;;;;;17.30;100.00;96116.13;10477386;28;1838;-70
2023/05/25 11:07:50;;;;;;;;;;;;;;;17.06;100.00;96113.72;10478337;28;1787;-72
2023/05/25 11:12:52;;;;;;;;;;;;;;;17.17;100.00;96108.84;10476409;28;1918;-71
2023/05/25 11:17:55;;;;;;;;;;;;;;;17.23;100.00;96119.28;10479506;28;1897;-70
2023/05/25 11:22:57;;;;;;;;;;;;;;;17.73;100.00;96110.25;10472886;28;1976;-71
2023/05/25 11:28:00;;;;;;;;;;;;;;;18.32;100.00;96105.41;10457295;28;1830;-69
2023/05/25 11:33:02;;;;;;;;;;;;;;;18.41;100.00;96106.25;10472729;28;1909;-69
2023/05/25 11:38:05;;;;;;;;;;;;;;;17.99;100.00;96099.50;10471794;28;1954;-70
2023/05/25 11:43:07;;;;;;;;;;;;;;;17.80;100.00;96095.09;10476786;28;4559;-71
2023/05/25 11:48:10;;;;;;;;;;;;;;;18.45;100.00;96095.50;10478905;28;2007;-69
2023/05/25 11:53:13;;;;;;;;;;;;;;;18.17;100.00;96100.38;10475830;28;1914;-69
2023/05/25 11:58:16;;;;;;;;;;;;;;;18.37;100.00;96087.00;10480018;28;1902;-70
2023/05/25 12:03:19;;;;;;;;;;;;;;;18.13;100.00;96083.88;10479621;28;1868;-69
2023/05/25 12:08:22;;;;;;;;;;;;;;;18.16;100.00;96085.97;10479265;28;1890;-69
2023/05/25 12:13:25;;;;;;;;;;;;;;;18.66;100.00;96082.94;10477369;28;1906;-69
2023/05/25 12:18:28;;;;;;;;;;;;;;;19.48;100.00;96080.44;10479835;28;2118;-70
2023/05/25 12:23:30;;;;;;;;;;;;;;;19.71;100.00;96079.13;10482347;28;1861;-69
2023/05/25 12:28:33;;;;;;;;;;;;;;;19.22;100.00;96078.53;10479442;28;2314;-70
2023/05/25 12:33:35;;;;;;;;;;;;;;;18.43;100.00;96084.16;10475575;28;2040;-68
2023/05/25 12:38:38;;;;;;;;;;;;;;;19.07;100.00;96071.63;10477480;28;1837;-70
2023/05/25 12:43:42;;;;;;;;;;;;;;;19.21;100.00;96087.78;10476024;28;4616;-70
2023/05/25 12:48:45;;;;;;;;;;;;;;;18.48;100.00;96081.28;10477509;28;2468;-70
2023/05/25 12:53:48;;;;;;;;;;;;;;;18.66;100.00;96065.78;10472893;28;1838;-68
2023/05/25 12:58:50;;;;;;;;;;;;;;;18.83;100.00;96061.22;10480348;28;1795;-70
2023/05/25 13:03:53;;;;;;;;;;;;;;;18.80;100.00;96061.84;10481778;28;1724;-70
2023/05/25 13:08:55;;;;;;;;;;;;;;;19.00;100.00;96054.16;10478579;28;1914;-70
2023/05/25 13:13:58;;;;;;;;;;;;;;;18.71;100.00;96058.31;10469048;28;1897;-69
2023/05/25 13:19:00;;;;;;;;;;;;;;;18.96;100.00;96054.00;10475772;28;1838;-71
2023/05/25 13:24:02;;;;;;;;;;;;;;;19.25;100.00;96045.16;10473515;28;1854;-71
2023/05/25 13:29:05;;;;;;;;;;;;;;;19.48;100.00;96042.25;10473103;28;1914;-72
2023/05/25 13:34:07;;;;;;;;;;;;;;;19.58;100.00;96036.47;10472633;28;2108;-71
2023/05/25 13:39:12;;;;;;;;;;;;;;;19.42;100.00;96034.25;10477580;28;1881;-68
2023/05/25 13:44:14;;;;;;;;;;;;;;;19.40;100.00;96044.69;10470858;28;4754;-69
2023/05/25 13:49:19;;;;;;;;;;;;;;;19.96;100.00;96034.59;10467540;28;1987;-69
2023/05/25 13:54:22;;;;;;;;;;;;;;;19.81;100.00;96034.34;10482308;28;1893;-74
2023/05/25 13:59:24;;;;;;;;;;;;;;;19.64;100.00;96024.28;10481777;28;1874;-70
2023/05/25 14:04:27;;;;;;;;;;;;;;;20.22;100.00;96025.47;10473500;28;1920;-69
2023/05/25 14:09:30;;;;;;;;;;;;;;;20.36;100.00;96030.69;10483400;28;1975;-72
2023/05/25 14:14:33;;;;;;;;;;;;;;;20.57;100.00;96019.88;10478239;28;1905;-70
2023/05/25 14:19:35;;;;;;;;;;;;;;;20.76;100.00;96021.00;10481861;28;1940;-71
2023/05/25 14:24:37;;;;;;;;;;;;;;;20.57;100.00;96017.13;10477739;28;1904;-68
2023/05/25 14:29:40;;;;;;;;;;;;;;;20.16;100.00;96019.41;10478001;28;2027;-69
2023/05/25 14:34:43;;;;;;;;;;;;;;;20.52;100.00;96015.38;10475741;28;1961;-70
2023/05/25 14:39:45;;;;;;;;;;;;;;;20.81;100.00;96020.03;10479175;28;1822;-70
2023/05/25 14:44:48;;;;;;;;;;;;;;;21.03;100.00;96007.94;10480674;28;4791;-69
2023/05/25 14:49:51;;;;;;;;;;;;;;;21.05;100.00;96016.59;10477316;28;1911;-70
2023/05/25 14:54:53;;;;;;;;;;;;;;;21.04;100.00;96006.81;10477546;28;1936;-69
2023/05/25 14:59:55;;;;;;;;;;;;;;;21.37;100.00;96001.38;10476627;28;1838;-69
2023/05/25 15:04:58;;;;;;;;;;;;;;;21.50;100.00;96016.72;10480811;28;1829;-70
2023/05/25 15:10:01;;;;;;;;;;;;;;;21.49;100.00;96012.34;10474495;28;1917;-70
2023/05/25 15:15:04;;;;;;;;;;;;;;;21.47;100.00;96017.38;10483115;28;1925;-69
2023/05/25 15:20:06;;;;;;;;;;;;;;;21.25;100.00;96010.31;10478915;28;1877;-71
2023/05/25 15:25:09;;;;;;;;;;;;;;;21.24;100.00;96002.44;10479238;28;2111;-71
2023/05/25 15:30:18;;;;;;;;;;;;;;;21.93;100.00;96006.41;10476901;28;2056;-71
2023/05/25 15:35:20;;;;;;;;;;;;;;;21.00;100.00;96017.63;10472684;28;1925;-69
2023/05/25 15:40:23;;;;;;;;;;;;;;;20.71;100.00;96010.28;10475556;28;1889;-70
2023/05/25 15:45:26;;;;;;;;;;;;;;;20.84;100.00;96000.22;10471737;28;4713;-69
2023/05/25 15:50:29;;;;;;;;;;;;;;;21.87;100.00;96003.06;10481236;28;1910;-72
2023/05/25 15:55:31;;;;;;;;;;;;;;;21.45;100.00;96003.25;10467207;28;1936;-72
2023/05/25 16:00:34;;;;;;;;;;;;;;;21.87;100.00;95997.59;10474725;28;1857;-71
2023/05/25 16:05:37;;;;;;;;;;;;;;;21.51;100.00;95990.94;10465785;28;1822;-70
2023/05/25 16:10:40;;;;;;;;;;;;;;;21.33;100.00;95991.47;10477514;28;1910;-71
2023/05/25 16:15:42;;;;;;;;;;;;;;;20.58;100.00;96002.34;10475684;28;1913;-69
2023/05/25 17:32:30;;;;;;;;;;;;;;;20.26;100.00;96007.31;10546710;27;3872;-71
2023/05/25 17:37:33;;;;;;;;;;;;;;;20.51;100.00;96005.59;10505441;28;5441;-71
2023/05/25 17:42:35;;;;;;;;;;;;;;;20.57;100.00;96012.47;10502755;28;1904;-71
2023/05/25 17:47:38;;;;;;;;;;;;;;;20.35;100.00;96010.78;10490932;28;1906;-72
2023/05/25 17:52:42;;;;;;;;;;;;;;;20.26;100.00;96010.06;10506929;28;5478;-70
2023/05/25 17:57:46;;;;;;;;;;;;;;;20.05;100.00;96010.00;10495905;28;1792;-76
2023/05/25 18:02:50;;;;;;;;;;;;;;;19.87;100.00;96019.41;10501503;28;1566;-69
2023/05/25 18:07:53;;;;;;;;;;;;;;;19.77;100.00;96023.25;10494083;28;1910;-71
2023/05/25 18:12:55;;;;;;;;;;;;;;;19.83;100.00;96032.88;10500818;28;1616;-71
2023/05/25 18:17:59;;;;;;;;;;;;;;;19.77;100.00;96027.91;10506094;28;1875;-71
2023/05/25 18:23:02;;;;;;;;;;;;;;;19.75;100.00;96030.97;10502026;28;1957;-70
2023/05/25 18:28:04;;;;;;;;;;;;;;;19.61;100.00;96042.09;10494157;28;8512;-72
2023/05/25 18:33:08;;;;;;;;;;;;;;;19.50;100.00;96034.56;10497651;28;1939;-72
2023/05/25 18:38:11;;;;;;;;;;;;;;;19.30;100.00;96042.28;10500778;28;1984;-71
2023/05/25 18:43:13;;;;;;;;;;;;;;;19.11;100.00;96041.81;10490687;28;1853;-69
2023/05/25 18:48:16;;;;;;;;;;;;;;;18.94;100.00;96050.78;10481633;28;1949;-70
2023/05/25 18:53:20;;;;;;;;;;;;;;;18.82;100.00;96048.69;10474079;28;1884;-71
2023/05/25 18:58:22;;;;;;;;;;;;;;;18.67;100.00;96051.09;10484607;28;2381;-72
2023/05/25 19:03:25;;;;;;;;;;;;;;;18.65;100.00;96051.38;10487109;28;1892;-72
2023/05/25 19:08:27;;;;;;;;;;;;;;;18.53;100.00;96062.09;10482150;28;1910;-71
2023/05/25 19:13:30;;;;;;;;;;;;;;;18.46;100.00;96068.00;10476755;28;2004;-71
2023/05/25 19:18:32;;;;;;;;;;;;;;;18.43;100.00;96070.53;10472576;28;2119;-71
2023/05/25 19:23:35;;;;;;;;;;;;;;;18.40;100.00;96077.44;10477353;28;2510;-71
2023/05/25 19:28:38;;;;;;;;;;;;;;;18.26;100.00;96083.00;10475313;28;5624;-71
2023/05/25 19:33:41;;;;;;;;;;;;;;;17.98;100.00;96085.09;10479133;28;1923;-70
2023/05/25 19:38:43;;;;;;;;;;;;;;;17.95;100.00;96093.91;10481687;28;1965;-71
2023/05/25 19:43:45;;;;;;;;;;;;;;;17.81;100.00;96093.16;10471630;28;1900;-72
2023/05/25 19:48:48;;;;;;;;;;;;;;;17.74;100.00;96109.13;10475276;28;1969;-71
2023/05/25 19:53:50;;;;;;;;;;;;;;;17.68;100.00;96113.84;10475163;28;1922;-69
2023/05/25 19:58:53;;;;;;;;;;;;;;;17.71;100.00;96123.31;10480704;28;2310;-69
2023/05/25 20:03:55;;;;;;;;;;;;;;;17.90;100.00;96120.44;10474919;28;1977;-70
2023/05/25 20:08:58;;;;;;;;;;;;;;;17.68;100.00;96126.63;10477843;28;1952;-69
2023/05/25 20:14:00;;;;;;;;;;;;;;;17.60;100.00;96122.75;10478858;28;1793;-69
2023/05/25 20:19:06;;;;;;;;;;;;;;;17.53;100.00;96139.50;10477790;28;2238;-70
2023/05/25 20:24:08;;;;;;;;;;;;;;;17.54;100.00;96138.38;10479347;28;2360;-69
2023/05/25 20:29:11;;;;;;;;;;;;;;;17.53;100.00;96139.50;10475830;28;5655;-71
2023/05/25 20:34:13;;;;;;;;;;;;;;;17.51;100.00;96149.88;10471470;28;2036;-69
2023/05/25 20:39:16;;;;;;;;;;;;;;;17.49;100.00;96143.13;10474125;28;1882;-72
2023/05/25 20:44:18;;;;;;;;;;;;;;;17.44;100.00;96138.66;10471547;28;1940;-68
2023/05/25 20:49:20;;;;;;;;;;;;;;;17.40;100.00;96145.81;10467186;28;1973;-72
2023/05/25 20:54:27;;;;;;;;;;;;;;;17.19;100.00;96145.47;10473560;28;1930;-70
2023/05/25 20:59:30;;;;;;;;;;;;;;;16.88;100.00;96155.41;10472982;28;1981;-75
2023/05/25 21:04:33;;;;;;;;;;;;;;;16.54;100.00;96153.91;10470485;28;1939;-71
2023/05/25 21:09:35;;;;;;;;;;;;;;;16.21;100.00;96159.41;10474155;28;1965;-70
2023/05/25 21:14:38;;;;;;;;;;;;;;;16.00;100.00;96160.09;10475628;28;1944;-71
2023/05/25 21:19:40;;;;;;;;;;;;;;;15.71;100.00;96163.00;10474752;28;2388;-71
2023/05/25 21:24:43;;;;;;;;;;;;;;;15.62;100.00;96169.09;10473955;28;1983;-70
2023/05/25 21:29:45;;;;;;;;;;;;;;;15.58;100.00;96176.19;10472068;28;5654;-70
2023/05/25 21:34:48;;;;;;;;;;;;;;;15.49;100.00;96174.44;10476511;28;1897;-70
2023/05/25 21:39:51;;;;;;;;;;;;;;;15.30;100.00;96167.13;10474807;28;2000;-70
2023/05/25 21:44:53;;;;;;;;;;;;;;;15.12;100.00;96176.88;10475176;28;1844;-69
2023/05/25 21:49:56;;;;;;;;;;;;;;;14.99;100.00;96177.59;10475103;28;1913;-70
2023/05/25 21:54:58;;;;;;;;;;;;;;;14.99;100.00;96180.31;10467310;28;1833;-70
2023/05/25 22:00:01;;;;;;;;;;;;;;;14.81;100.00;96186.50;10466746;28;1986;-70
2023/05/25 22:05:03;;;;;;;;;;;;;;;14.71;100.00;96175.81;10470949;28;1844;-71
2023/05/25 22:10:05;;;;;;;;;;;;;;;14.65;100.00;96168.84;10466105;28;1910;-71
2023/05/25 22:15:08;;;;;;;;;;;;;;;14.52;100.00;96165.75;10471678;28;2216;-70
2023/05/25 22:20:11;;;;;;;;;;;;;;;14.37;100.00;96173.19;10481679;28;1881;-73
2023/05/25 22:25:13;;;;;;;;;;;;;;;14.36;100.00;96169.69;10478938;28;1990;-71
2023/05/25 22:30:16;;;;;;;;;;;;;;;14.29;100.00;96164.63;10478303;28;5634;-69
2023/05/25 22:35:19;;;;;;;;;;;;;;;14.23;100.00;96165.78;10478980;28;2094;-70
2023/05/25 22:40:21;;;;;;;;;;;;;;;14.16;100.00;96167.22;10480504;28;1834;-69
2023/05/25 22:45:23;;;;;;;;;;;;;;;14.07;100.00;96161.63;10482644;28;1875;-69
2023/05/25 22:50:26;;;;;;;;;;;;;;;14.00;100.00;96155.75;10478793;28;2126;-70
2023/05/25 22:55:29;;;;;;;;;;;;;;;13.94;100.00;96155.00;10478854;28;1821;-73
2023/05/25 23:00:31;;;;;;;;;;;;;;;13.81;100.00;96158.38;10482124;28;1842;-69
2023/05/25 23:05:34;;;;;;;;;;;;;;;13.74;100.00;96147.91;10477871;28;1955;-78
2023/05/25 23:10:36;;;;;;;;;;;;;;;13.65;100.00;96159.59;10473169;28;2547;-71
2023/05/25 23:15:39;;;;;;;;;;;;;;;13.49;100.00;96157.03;10476406;28;1901;-70
2023/05/25 23:20:42;;;;;;;;;;;;;;;13.35;100.00;96166.84;10474138;28;1821;-70
2023/05/25 23:25:45;;;;;;;;;;;;;;;13.23;100.00;96160.97;10474721;28;1925;-71
2023/05/25 23:30:48;;;;;;;;;;;;;;;13.17;100.00;96154.00;10476216;28;5539;-71
2023/05/25 23:35:51;;;;;;;;;;;;;;;13.24;100.00;96143.72;10470361;28;1854;-70
2023/05/25 23:40:54;;;;;;;;;;;;;;;13.19;100.00;96158.03;10477847;28;2027;-70
2023/05/25 23:45:57;;;;;;;;;;;;;;;13.25;100.00;96156.94;10473249;28;1896;-70
2023/05/25 23:50:59;;;;;;;;;;;;;;;13.27;100.00;96153.13;10471453;28;1906;-70
2023/05/25 23:56:03;;;;;;;;;;;;;;;13.51;100.00;96154.84;10472737;28;1881;-71
